createdAt,value
2022-08-10T00:00:23.077Z,1.63
2022-08-10T00:02:59.185Z,1.80
2022-08-10T00:05:43.394Z,1.70
2022-08-10T00:08:25.363Z,1.70
2022-08-10T00:10:58.403Z,1.80
2022-08-10T00:13:31.455Z,1.67
2022-08-10T00:16:05.290Z,1.52
2022-08-10T00:18:38.212Z,1.60
2022-08-10T00:21:11.477Z,1.67
2022-08-10T00:23:44.413Z,1.60
2022-08-10T00:26:17.527Z,1.15
2022-08-10T00:28:51.595Z,1.80
2022-08-10T00:31:24.898Z,1.63
2022-08-10T00:33:58.286Z,1.70
2022-08-10T00:36:31.773Z,1.63
2022-08-10T00:39:05.558Z,1.80
2022-08-10T00:41:38.524Z,1.40
2022-08-10T00:44:11.566Z,1.60
2022-08-10T00:46:44.569Z,1.65
2022-08-10T00:49:17.641Z,1.70
2022-08-10T00:51:50.669Z,1.77
2022-08-10T00:54:25.189Z,1.40
2022-08-10T00:57:16.737Z,1.65
2022-08-10T00:59:57.676Z,1.55
2022-08-10T01:02:33.380Z,1.60
2022-08-10T01:05:09.782Z,1.70
2022-08-10T01:08:16.525Z,1.42
2022-08-10T01:11:07.580Z,1.70
2022-08-10T01:14:38.303Z,1.80
2022-08-10T01:17:21.813Z,1.65
2022-08-10T01:20:03.617Z,1.50
2022-08-10T01:23:14.120Z,1.65
2022-08-10T01:26:10.506Z,1.63
2022-08-10T01:29:12.989Z,1.70
2022-08-10T01:31:51.257Z,1.57
2022-08-10T01:34:29.203Z,1.52
2022-08-10T01:37:13.557Z,1.50
2022-08-10T01:39:51.198Z,1.52
2022-08-10T01:42:25.760Z,1.45
2022-08-10T01:45:03.478Z,1.55
2022-08-10T01:48:00.140Z,1.60
2022-08-10T01:50:59.680Z,1.65
2022-08-10T01:53:41.485Z,1.55
2022-08-10T01:56:16.886Z,1.60
2022-08-10T01:59:12.001Z,1.40
2022-08-10T02:01:51.989Z,1.60
2022-08-10T02:04:27.701Z,1.60
2022-08-10T02:07:02.281Z,1.50
2022-08-10T02:09:40.303Z,1.40
2022-08-10T02:12:18.367Z,1.50
2022-08-10T02:15:05.800Z,1.75
2022-08-10T02:17:59.904Z,1.73
2022-08-10T02:20:44.501Z,1.77
2022-08-10T02:23:27.575Z,1.60
2022-08-10T02:26:02.021Z,1.40
2022-08-10T02:28:37.106Z,1.55
2022-08-10T02:31:12.846Z,1.85
2022-08-10T02:33:57.163Z,1.90
2022-08-10T02:36:35.148Z,1.90
2022-08-10T02:39:09.173Z,1.50
2022-08-10T02:45:13.075Z,1.90
2022-08-10T02:45:26.954Z,1.95
2022-08-10T02:48:24.333Z,1.80
2022-08-10T02:51:01.833Z,1.77
2022-08-10T02:53:54.723Z,1.80
2022-08-10T02:56:39.481Z,1.63
2022-08-10T02:59:17.438Z,1.58
2022-08-10T03:01:56.091Z,2.00
2022-08-10T03:04:56.120Z,1.80
2022-08-10T03:07:43.722Z,2.00
2022-08-10T03:10:21.475Z,1.90
2022-08-10T03:13:02.794Z,1.90
2022-08-10T03:15:37.810Z,2.10
2022-08-10T03:18:13.430Z,1.70
2022-08-10T03:20:47.498Z,1.85
2022-08-10T03:23:24.025Z,1.80
2022-08-10T03:25:59.058Z,1.83
2022-08-10T03:28:37.307Z,2.10
2022-08-10T03:31:11.044Z,1.90
2022-08-10T03:33:44.814Z,1.90
2022-08-10T03:36:40.493Z,1.85
2022-08-10T03:39:11.386Z,1.92
2022-08-10T03:41:53.591Z,2.40
2022-08-10T03:44:32.896Z,2.10
2022-08-10T03:47:16.313Z,2.20
2022-08-10T03:49:51.038Z,2.10
2022-08-10T03:52:25.262Z,2.15
2022-08-10T03:54:59.374Z,2.25
2022-08-10T03:57:32.607Z,2.25
2022-08-10T04:00:08.844Z,2.05
2022-08-10T04:02:51.272Z,2.22
2022-08-10T04:05:24.556Z,2.13
2022-08-10T04:08:12.782Z,1.95
2022-08-10T04:10:45.933Z,2.20
2022-08-10T04:13:18.963Z,2.00
2022-08-10T04:15:51.926Z,2.13
2022-08-10T04:18:25.110Z,2.35
2022-08-10T04:21:03.122Z,2.17
2022-08-10T04:23:41.343Z,1.90
2022-08-10T04:26:15.191Z,2.30
2022-08-10T04:28:49.192Z,2.40
2022-08-10T04:31:22.813Z,2.50
2022-08-10T04:33:57.845Z,2.55
2022-08-10T04:36:31.475Z,2.33
2022-08-10T04:39:04.613Z,2.08
2022-08-10T04:41:37.760Z,2.28
2022-08-10T04:44:19.072Z,2.20
2022-08-10T04:46:55.691Z,2.38
2022-08-10T04:49:56.530Z,2.22
2022-08-10T04:52:25.242Z,2.45
2022-08-10T04:54:58.269Z,2.20
2022-08-10T04:57:31.254Z,2.65
2022-08-10T05:00:07.453Z,2.40
2022-08-10T05:02:52.169Z,2.30
2022-08-10T05:05:25.098Z,2.50
2022-08-10T05:07:58.190Z,2.38
2022-08-10T05:10:31.211Z,2.40
2022-08-10T05:13:04.153Z,2.15
2022-08-10T05:15:37.096Z,2.55
2022-08-10T05:18:11.392Z,2.47
2022-08-10T05:20:49.723Z,2.58
2022-08-10T05:23:23.121Z,2.05
2022-08-10T05:25:56.090Z,2.22
2022-08-10T05:28:30.841Z,2.53
2022-08-10T05:31:08.246Z,2.38
2022-08-10T05:33:41.370Z,2.28
2022-08-10T05:36:14.718Z,2.50
2022-08-10T05:38:49.411Z,2.35
2022-08-10T05:41:22.930Z,2.78
2022-08-10T05:43:57.579Z,2.53
2022-08-10T05:46:30.516Z,2.58
2022-08-10T05:49:04.223Z,2.78
2022-08-10T05:51:37.216Z,2.45
2022-08-10T05:54:19.890Z,2.80
2022-08-10T05:56:58.025Z,2.22
2022-08-10T06:00:10.870Z,2.40
2022-08-10T06:02:38.100Z,2.38
2022-08-10T06:05:15.802Z,2.15
2022-08-10T06:07:53.300Z,2.25
2022-08-10T06:10:32.951Z,1.80
2022-08-10T06:13:30.931Z,2.38
2022-08-10T06:16:12.065Z,1.80
2022-08-10T06:18:45.603Z,1.63
2022-08-10T06:21:20.122Z,1.17
2022-08-10T06:23:54.717Z,1.60
2022-08-10T06:26:27.787Z,1.60
2022-08-10T06:29:07.787Z,1.40
2022-08-10T06:31:48.926Z,1.40
2022-08-10T06:34:33.666Z,1.63
2022-08-10T06:37:08.192Z,1.50
2022-08-10T06:39:41.407Z,1.55
2022-08-10T06:42:34.511Z,1.73
2022-08-10T06:45:07.717Z,1.48
2022-08-10T06:47:55.783Z,1.67
2022-08-10T06:50:58.602Z,1.45
2022-08-10T06:53:52.186Z,1.48
2022-08-10T06:56:50.926Z,1.65
2022-08-10T06:59:53.089Z,1.58
2022-08-10T07:03:00.874Z,1.60
2022-08-10T07:05:51.341Z,1.65
2022-08-10T07:08:26.402Z,1.63
2022-08-10T07:11:01.241Z,1.35
2022-08-10T07:14:14.291Z,1.40
2022-08-10T07:16:33.127Z,1.20
2022-08-10T07:19:08.262Z,1.50
2022-08-10T07:21:43.350Z,1.40
2022-08-10T07:24:17.691Z,1.20
2022-08-10T07:26:54.774Z,1.30
2022-08-10T07:29:53.443Z,1.40
2022-08-10T07:32:25.582Z,1.60
2022-08-10T07:34:59.365Z,1.80
2022-08-10T07:37:36.305Z,1.70
2022-08-10T07:40:10.945Z,1.17
2022-08-10T07:42:47.202Z,1.48
2022-08-10T07:45:20.384Z,1.27
2022-08-10T07:48:06.667Z,1.52
2022-08-10T07:50:41.557Z,1.38
2022-08-10T07:53:21.516Z,1.38
2022-08-10T07:56:05.801Z,1.27
2022-08-10T07:58:51.805Z,1.30
2022-08-10T08:01:31.832Z,1.20
2022-08-10T08:04:11.167Z,1.27
2022-08-10T08:06:46.639Z,1.20
2022-08-10T08:09:21.118Z,1.20
2022-08-10T08:11:55.488Z,1.40
2022-08-10T08:14:29.774Z,1.40
2022-08-10T08:17:02.892Z,1.27
2022-08-10T08:19:45.801Z,1.50
2022-08-10T08:24:07.661Z,1.15
2022-08-10T08:25:23.926Z,1.15
2022-08-10T08:27:59.368Z,1.30
2022-08-10T08:30:33.014Z,1.30
2022-08-10T08:33:20.069Z,1.20
2022-08-10T08:36:09.897Z,1.13
2022-08-10T08:38:43.952Z,1.15
2022-08-10T08:41:16.879Z,1.10
2022-08-10T08:44:09.359Z,1.30
2022-08-10T08:47:01.050Z,1.38
2022-08-10T08:50:07.585Z,1.48
2022-08-10T08:53:22.186Z,1.23
2022-08-10T08:56:13.920Z,1.40
2022-08-10T08:59:14.418Z,1.20
2022-08-10T09:02:07.913Z,1.38
2022-08-10T09:05:17.783Z,1.30
2022-08-10T09:08:03.414Z,1.20
2022-08-10T09:10:51.459Z,1.15
2022-08-10T09:14:06.288Z,1.00
2022-08-10T09:17:00.652Z,1.27
2022-08-10T09:19:45.868Z,1.33
2022-08-10T09:22:43.757Z,1.40
2022-08-10T09:25:26.189Z,1.05
2022-08-10T09:28:11.597Z,1.00
2022-08-10T09:31:23.156Z,0.98
2022-08-10T09:36:26.784Z,1.38
2022-08-10T09:37:40.060Z,1.15
2022-08-10T09:41:01.230Z,1.20
2022-08-10T09:43:55.837Z,1.30
2022-08-10T09:47:06.676Z,1.15
2022-08-10T09:50:02.247Z,1.20
2022-08-10T09:53:05.680Z,1.17
2022-08-10T09:56:19.069Z,1.08
2022-08-10T09:59:26.574Z,1.25
2022-08-10T10:02:28.673Z,0.85
2022-08-10T10:05:30.169Z,0.90
2022-08-10T10:08:18.831Z,0.90
2022-08-10T10:11:17.561Z,1.00
2022-08-10T10:14:31.329Z,1.00
2022-08-10T10:17:30.901Z,1.15
2022-08-10T10:20:13.738Z,1.20
2022-08-10T10:23:05.138Z,0.90
2022-08-10T10:26:17.660Z,1.10
2022-08-10T10:29:58.451Z,1.00
2022-08-10T10:32:45.207Z,1.15
2022-08-10T10:35:27.099Z,0.85
2022-08-10T10:38:03.561Z,1.08
2022-08-10T10:40:46.954Z,1.10
2022-08-10T10:43:31.765Z,1.10
2022-08-10T10:46:29.583Z,1.02
2022-08-10T10:49:23.047Z,1.00
2022-08-10T10:52:38.978Z,1.20
2022-08-10T10:55:18.097Z,0.90
2022-08-10T10:58:12.545Z,1.10
2022-08-10T11:01:05.540Z,1.10
2022-08-10T11:04:26.375Z,1.05
2022-08-10T11:07:23.633Z,1.10
2022-08-10T11:10:32.127Z,1.27
2022-08-10T11:14:27.238Z,1.10
2022-08-10T11:16:30.790Z,1.00
2022-08-10T11:19:10.657Z,1.20
2022-08-10T11:22:05.000Z,0.77
2022-08-10T11:25:08.435Z,1.13
2022-08-10T11:27:55.071Z,0.95
2022-08-10T11:30:43.351Z,0.85
2022-08-10T11:36:58.964Z,0.70
2022-08-10T11:39:52.559Z,0.90
2022-08-10T11:42:46.667Z,0.98
2022-08-10T11:45:32.069Z,1.10
2022-08-10T11:48:54.196Z,0.85
2022-08-10T11:51:29.849Z,1.00
2022-08-10T11:54:14.452Z,0.90
2022-08-10T11:56:50.764Z,0.90
2022-08-10T11:59:44.971Z,0.90
2022-08-10T12:02:25.374Z,0.90
2022-08-10T12:05:11.884Z,0.80
2022-08-10T12:09:22.645Z,0.80
2022-08-10T12:10:43.547Z,0.88
2022-08-10T12:13:31.298Z,0.90
2022-08-10T12:16:08.953Z,1.00
2022-08-10T12:19:02.956Z,0.70
2022-08-10T12:21:43.249Z,0.80
2022-08-10T12:24:20.092Z,0.90
2022-08-10T12:26:52.957Z,0.80
2022-08-10T12:30:03.415Z,1.10
2022-08-10T12:32:39.388Z,0.63
2022-08-10T12:35:31.044Z,0.88
2022-08-10T12:38:42.036Z,0.90
2022-08-10T12:41:43.561Z,0.93
2022-08-10T12:44:41.584Z,0.82
2022-08-10T12:47:27.776Z,0.90
2022-08-10T12:50:32.849Z,0.90
2022-08-10T12:53:40.500Z,1.02
2022-08-10T12:56:22.531Z,1.10
2022-08-10T12:59:01.493Z,1.10
2022-08-10T13:02:08.657Z,1.02
2022-08-10T13:04:36.110Z,0.70
2022-08-10T13:07:10.995Z,1.20
2022-08-10T13:10:30.414Z,0.80
2022-08-10T13:13:03.898Z,0.80
2022-08-10T13:15:49.183Z,0.80
2022-08-10T13:18:33.669Z,0.90
2022-08-10T13:21:20.819Z,1.15
2022-08-10T13:24:04.373Z,1.13
2022-08-10T13:27:25.170Z,0.90
2022-08-10T13:29:57.675Z,0.88
2022-08-10T13:32:38.523Z,0.90
2022-08-10T13:35:14.386Z,0.95
2022-08-10T13:37:49.592Z,1.00
2022-08-10T13:40:25.067Z,1.10
2022-08-10T13:43:00.779Z,0.95
2022-08-10T13:45:39.683Z,1.05
2022-08-10T13:48:25.020Z,0.80
2022-08-10T13:50:59.414Z,1.00
2022-08-10T13:53:33.779Z,0.90
2022-08-10T13:56:10.393Z,0.95
2022-08-10T13:58:47.849Z,1.23
2022-08-10T14:01:33.339Z,1.00
2022-08-10T14:04:10.897Z,0.90
2022-08-10T14:06:53.902Z,1.10
2022-08-10T14:09:33.978Z,0.85
2022-08-10T14:12:08.691Z,1.00
2022-08-10T14:14:42.987Z,1.20
2022-08-10T14:17:20.799Z,0.90
2022-08-10T14:19:58.492Z,0.85
2022-08-10T14:22:34.426Z,1.10
2022-08-10T14:25:09.695Z,1.10
2022-08-10T14:28:03.686Z,0.90
2022-08-10T14:30:37.749Z,1.00
2022-08-10T14:33:15.643Z,0.80
2022-08-10T14:36:18.772Z,0.80
2022-08-10T14:38:44.721Z,0.80
2022-08-10T14:42:01.592Z,1.05
2022-08-10T14:44:21.573Z,1.35
2022-08-10T14:46:57.926Z,0.90
2022-08-10T14:49:31.633Z,1.02
2022-08-10T14:52:26.782Z,0.90
2022-08-10T14:55:04.767Z,0.88
2022-08-10T14:58:19.844Z,1.10
2022-08-10T15:00:42.706Z,0.90
2022-08-10T15:04:01.798Z,0.90
2022-08-10T15:06:16.988Z,1.13
2022-08-10T15:08:52.159Z,1.20
2022-08-10T15:12:13.732Z,1.83
2022-08-10T15:14:41.588Z,1.20
2022-08-10T15:17:28.889Z,1.10
2022-08-10T15:20:16.777Z,1.20
2022-08-10T15:23:01.009Z,1.17
2022-08-10T15:25:40.208Z,1.20
2022-08-10T15:29:22.723Z,0.80
2022-08-10T15:31:28.611Z,1.00
2022-08-10T15:34:28.784Z,1.27
2022-08-10T15:37:39.835Z,0.82
2022-08-10T15:40:21.032Z,0.90
2022-08-10T15:43:05.655Z,0.93
2022-08-10T15:46:31.478Z,1.20
2022-08-10T15:49:17.304Z,1.10
2022-08-10T15:52:11.365Z,0.95
2022-08-10T15:55:43.803Z,1.00
2022-08-10T15:58:12.914Z,1.08
2022-08-10T16:00:59.799Z,1.00
2022-08-10T16:03:41.618Z,1.05
2022-08-10T16:06:48.128Z,1.05
2022-08-10T16:10:22.650Z,0.90
2022-08-10T16:12:32.463Z,0.93
2022-08-10T16:15:15.021Z,0.90
2022-08-10T16:17:56.147Z,0.90
2022-08-10T16:20:31.263Z,1.10
2022-08-10T16:23:09.446Z,1.00
2022-08-10T16:25:52.705Z,0.90
2022-08-10T16:28:36.898Z,1.00
2022-08-10T16:31:18.481Z,1.02
2022-08-10T16:33:55.099Z,1.10
2022-08-10T16:36:49.714Z,0.85
2022-08-10T16:39:59.783Z,0.95
2022-08-10T16:42:25.825Z,1.13
2022-08-10T16:45:01.852Z,1.00
2022-08-10T16:47:44.423Z,1.00
2022-08-10T16:50:42.042Z,1.15
2022-08-10T16:53:17.475Z,1.13
2022-08-10T16:55:56.679Z,1.20
2022-08-10T16:58:36.555Z,1.10
2022-08-10T17:01:15.317Z,1.35
2022-08-10T17:04:07.522Z,1.10
2022-08-10T17:06:58.257Z,1.48
2022-08-10T17:09:35.177Z,1.10
2022-08-10T17:12:11.573Z,1.08
2022-08-10T17:14:44.892Z,1.10
2022-08-10T17:17:22.672Z,1.02
2022-08-10T17:20:29.974Z,1.20
2022-08-10T17:23:02.139Z,1.20
2022-08-10T17:25:46.409Z,1.20
2022-08-10T17:28:35.201Z,1.30
2022-08-10T17:31:23.527Z,1.15
2022-08-10T17:34:09.661Z,1.10
2022-08-10T17:36:47.887Z,1.17
2022-08-10T17:39:24.468Z,1.00
2022-08-10T17:41:58.726Z,1.20
2022-08-10T17:44:42.757Z,1.10
2022-08-10T17:47:16.779Z,1.10
2022-08-10T17:49:58.348Z,1.20
2022-08-10T17:52:33.205Z,1.02
2022-08-10T17:55:08.321Z,1.00
2022-08-10T17:57:41.854Z,1.30
2022-08-10T18:00:15.377Z,1.23
2022-08-10T18:02:49.866Z,1.10
2022-08-10T18:05:29.096Z,0.95
2022-08-10T18:08:07.969Z,1.23
2022-08-10T18:10:42.818Z,1.25
2022-08-10T18:13:19.407Z,1.10
2022-08-10T18:15:53.238Z,1.10
2022-08-10T18:18:27.998Z,1.27
2022-08-10T18:21:23.561Z,0.93
2022-08-10T18:24:07.592Z,1.00
2022-08-10T18:26:43.140Z,1.20
2022-08-10T18:29:22.184Z,1.38
2022-08-10T18:31:58.754Z,1.02
2022-08-10T18:34:33.432Z,1.20
2022-08-10T18:37:09.228Z,1.20
2022-08-10T18:39:44.603Z,1.13
2022-08-10T18:42:26.437Z,1.30
2022-08-10T18:45:07.092Z,1.20
2022-08-10T18:47:59.684Z,1.30
2022-08-10T18:50:54.360Z,1.30
2022-08-10T18:53:35.642Z,1.15
2022-08-10T18:56:20.683Z,0.90
2022-08-10T18:59:03.253Z,1.30
2022-08-10T19:01:46.221Z,1.40
2022-08-10T19:04:40.857Z,1.50
2022-08-10T19:07:19.964Z,1.58
2022-08-10T19:10:07.861Z,0.95
2022-08-10T19:13:03.939Z,0.95
2022-08-10T19:15:56.109Z,1.20
2022-08-10T19:18:37.107Z,1.10
2022-08-10T19:21:32.846Z,1.17
2022-08-10T19:24:24.107Z,1.25
2022-08-10T19:27:22.442Z,1.20
2022-08-10T19:30:24.752Z,1.27
2022-08-10T19:33:27.053Z,1.00
2022-08-10T19:36:35.509Z,1.42
2022-08-10T19:39:29.082Z,1.50
2022-08-10T19:42:14.328Z,1.25
2022-08-10T19:45:00.079Z,1.20
2022-08-10T19:47:40.072Z,1.40
2022-08-10T19:50:54.706Z,1.13
2022-08-10T19:53:58.260Z,1.40
2022-08-10T19:56:55.605Z,1.30
2022-08-10T20:00:16.759Z,1.40
2022-08-10T20:03:03.801Z,1.50
2022-08-10T20:06:13.401Z,1.70
2022-08-10T20:08:55.071Z,1.50
2022-08-10T20:12:01.663Z,1.40
2022-08-10T20:15:07.425Z,1.48
2022-08-10T20:18:21.014Z,1.42
2022-08-10T20:21:08.469Z,1.50
2022-08-10T20:24:12.285Z,1.77
2022-08-10T20:26:53.098Z,1.60
2022-08-10T20:29:57.170Z,1.60
2022-08-10T20:32:26.494Z,1.25
2022-08-10T20:35:08.055Z,1.38
2022-08-10T20:38:06.964Z,1.20
2022-08-10T20:41:02.949Z,1.60
2022-08-10T20:43:41.751Z,1.17
2022-08-10T20:46:33.524Z,1.40
2022-08-10T20:49:35.579Z,1.50
2022-08-10T20:52:09.535Z,1.60
2022-08-10T20:54:48.678Z,1.50
2022-08-10T20:58:03.878Z,1.60
2022-08-10T21:01:12.875Z,1.20
2022-08-10T21:04:30.962Z,1.30
2022-08-10T21:08:00.517Z,1.27
2022-08-10T21:10:48.765Z,1.20
2022-08-10T21:13:34.451Z,1.42
2022-08-10T21:16:34.716Z,1.45
2022-08-10T21:19:35.458Z,1.40
2022-08-10T21:22:16.745Z,1.50
2022-08-10T21:25:06.509Z,1.50
2022-08-10T21:27:57.865Z,1.23
2022-08-10T21:30:56.253Z,1.50
2022-08-10T21:33:45.518Z,1.60
2022-08-10T21:36:33.865Z,1.38
2022-08-10T21:39:42.410Z,1.70
2022-08-10T21:42:51.361Z,1.80
2022-08-10T21:46:08.612Z,1.75
2022-08-10T21:49:15.306Z,1.23
2022-08-10T21:52:16.208Z,1.25
2022-08-10T21:55:58.393Z,1.50
2022-08-10T21:58:58.223Z,1.83
2022-08-10T22:01:57.489Z,1.55
2022-08-10T22:04:49.420Z,1.60
2022-08-10T22:07:42.246Z,1.80
2022-08-10T22:10:39.363Z,1.67
2022-08-10T22:13:35.288Z,1.75
2022-08-10T22:16:37.038Z,1.60
2022-08-10T22:19:29.016Z,1.70
2022-08-10T22:22:28.553Z,1.67
2022-08-10T22:25:39.116Z,1.85
2022-08-10T22:28:34.733Z,1.70
2022-08-10T22:32:10.553Z,1.75
2022-08-10T22:35:08.512Z,1.55
2022-08-10T22:38:25.204Z,1.60
2022-08-10T22:41:27.581Z,1.65
2022-08-10T22:44:21.039Z,1.58
2022-08-10T22:47:13.170Z,1.77
2022-08-10T22:49:52.346Z,1.60
2022-08-10T22:52:34.255Z,1.60
2022-08-10T22:55:53.733Z,1.70
2022-08-10T22:58:41.903Z,1.77
2022-08-10T23:01:40.764Z,1.65
2022-08-10T23:04:26.949Z,1.50
2022-08-10T23:07:16.658Z,1.70
2022-08-10T23:10:26.644Z,1.63
2022-08-10T23:13:40.964Z,1.80
2022-08-10T23:16:40.212Z,1.85
2022-08-10T23:19:24.534Z,1.90
2022-08-10T23:22:07.270Z,1.58
2022-08-10T23:24:51.620Z,1.63
2022-08-10T23:27:38.705Z,1.70
2022-08-10T23:30:17.867Z,1.60
2022-08-10T23:32:58.952Z,1.92
2022-08-10T23:36:30.103Z,1.48
2022-08-10T23:38:43.631Z,1.55
2022-08-10T23:41:33.219Z,1.95
2022-08-10T23:44:07.586Z,1.95
2022-08-10T23:46:42.586Z,1.67
2022-08-10T23:49:16.395Z,1.80
2022-08-10T23:51:55.463Z,2.10
2022-08-10T23:54:30.339Z,1.95
2022-08-10T23:57:03.404Z,1.90
2022-08-10T23:59:37.654Z,1.58
